Time;durP1;ratioP1;P1;durP2;ratioP2;P2;SDS_P1;SDS_P2;PMS_P1;PMS_P2;Temp;Humidity;BMP_temperature;BMP_pressure;BME280_temperature;BME280_humidity;BME280_pressure;Samples;Min_cycle;Max_cycle;Signal;HPM_P1;HPM_P2
2022/02/23 00:02:48;;;;;;;8.85;1.92;;;;;;;6.57;95.24;100878.88;6212945;23;20027;-96
2022/02/23 00:05:38;;;;;;;10.00;1.73;;;;;;;6.61;91.72;100886.66;6214162;23;20023;-94
2022/02/23 00:08:24;;;;;;;;;;;;;;;;;;;;;
2022/02/23 00:10:56;;;;;;;6.53;1.65;;;;;;;6.44;90.48;100859.91;6210732;23;20307;-93
2022/02/23 00:13:30;;;;;;;10.80;1.95;;;;;;;6.39;92.54;100869.66;6211881;23;20028;-93
2022/02/23 00:16:15;;;;;;;;;;;;;;;;;;;;;
2022/02/23 00:18:47;;;;;;;11.50;1.88;;;;;;;6.43;93.12;100910.78;6210025;23;20091;-93
2022/02/23 00:21:19;;;;;;;9.40;2.25;;;;;;;6.14;93.81;100874.56;6210916;23;20535;-94
2022/02/23 00:23:46;;;;;;;8.07;1.58;;;;;;;6.11;94.19;100879.91;6209948;23;20024;-92
2022/02/23 00:26:16;;;;;;;11.00;2.65;;;;;;;6.11;92.87;100885.16;6212881;23;20448;-92
2022/02/23 00:28:46;;;;;;;8.95;2.05;;;;;;;6.30;93.59;100933.81;6212098;23;20020;-92
2022/02/23 00:31:18;;;;;;;10.65;2.13;;;;;;;6.08;95.14;100911.50;6210490;23;20060;-92
2022/02/23 00:34:06;;;;;;;12.75;2.22;;;;;;;5.85;95.45;100896.16;6205909;23;20017;-92
2022/02/23 00:36:38;;;;;;;9.32;2.20;;;;;;;5.88;95.59;100897.84;6214179;23;20033;-91
2022/02/23 00:39:21;;;;;;;11.48;1.98;;;;;;;5.90;95.29;100896.97;6190137;23;20024;-93
2022/02/23 00:41:51;;;;;;;10.40;2.38;;;;;;;6.09;95.11;100941.31;6211145;23;20036;-94
2022/02/23 00:44:35;;;;;;;;;;;;;;;;;;;;;
2022/02/23 00:47:11;;;;;;;9.07;2.30;;;;;;;5.98;96.09;100952.88;6212598;23;20404;-92
2022/02/23 00:49:41;;;;;;;15.32;3.00;;;;;;;5.83;95.70;100920.72;6212610;23;20047;-92
2022/02/23 00:52:10;;;;;;;13.55;2.63;;;;;;;5.94;96.07;100953.84;6209742;23;20024;-92
2022/02/23 00:54:54;;;;;;;10.80;2.53;;;;;;;5.84;94.88;100933.84;6211225;23;20500;-92
2022/02/23 00:57:21;;;;;;;13.80;2.67;;;;;;;5.86;94.60;100932.06;6219890;23;20017;-92
2022/02/23 01:00:01;;;;;;;;;;;;;;;;;;;;;
2022/02/23 01:02:40;;;;;;;12.52;2.83;;;;;;;5.72;95.43;100936.69;6217756;23;20032;-93
2022/02/23 01:05:09;;;;;;;22.58;3.58;;;;;;;5.79;96.36;100967.25;6218350;23;20023;-90
2022/02/23 01:07:40;;;;;;;13.32;2.90;;;;;;;5.63;97.07;100963.16;6220082;23;20087;-92
2022/02/23 01:10:29;;;;;;;16.95;3.00;;;;;;;5.61;97.38;100967.56;6202240;23;20016;-91
2022/02/23 01:13:08;;;;;;;14.95;2.80;;;;;;;5.56;96.39;100945.75;6221610;23;20100;-92
2022/02/23 01:15:42;;;;;;;18.67;3.63;;;;;;;5.64;96.28;100959.63;6219338;23;20017;-92
2022/02/23 01:18:15;;;;;;;14.30;3.30;;;;;;;5.57;96.05;100956.25;6218077;23;20023;-92
2022/02/23 01:20:56;;;;;;;14.05;4.07;;;;;;;5.74;96.45;100982.22;6218367;23;20036;-93
2022/02/23 01:23:27;;;;;;;18.52;4.13;;;;;;;5.66;96.55;100959.63;6216766;23;20016;-92
2022/02/23 01:25:54;;;;;;;14.15;3.60;;;;;;;6.02;96.34;101021.16;6214239;23;20393;-92
2022/02/23 01:28:27;;;;;;;15.73;4.05;;;;;;;5.71;96.84;100960.38;6214656;23;20017;-91
2022/02/23 01:30:54;;;;;;;16.23;3.65;;;;;;;5.82;97.88;100984.72;6214082;23;20051;-94
2022/02/23 01:33:22;;;;;;;16.23;4.10;;;;;;;5.75;97.76;100975.19;6215309;23;20017;-93
2022/02/23 01:35:55;;;;;;;21.75;4.07;;;;;;;5.81;95.72;100991.75;6213824;23;20017;-92
2022/02/23 01:38:34;;;;;;;;;;;;;;;;;;;;;
2022/02/23 01:41:11;;;;;;;17.08;3.60;;;;;;;5.72;94.37;100968.22;6216763;23;20080;-93
2022/02/23 01:43:40;;;;;;;14.27;3.97;;;;;;;5.79;94.80;100983.00;6219221;23;20025;-92
2022/02/23 01:46:18;;;;;;;19.73;3.42;;;;;;;5.88;94.15;100996.00;6225902;22;20067;-92
2022/02/23 01:48:47;;;;;;;15.05;4.15;;;;;;;6.08;92.41;100994.78;6215380;23;20099;-92
2022/02/23 01:51:22;;;;;;;18.73;3.80;;;;;;;5.96;91.26;100965.22;6188714;23;20017;-91
2022/02/23 01:53:51;;;;;;;24.02;3.70;;;;;;;5.92;91.59;100970.53;6209937;23;20111;-91
2022/02/23 01:56:24;;;;;;;14.77;2.90;;;;;;;6.36;90.47;101032.78;6214916;23;20459;-92
2022/02/23 01:58:53;;;;;;;13.38;2.70;;;;;;;6.32;89.88;101036.38;6213203;23;20013;-92
2022/02/23 02:01:53;;;;;;;;;;;;;;;;;;;;;
2022/02/23 02:04:25;;;;;;;11.27;3.35;;;;;;;6.08;90.50;101029.81;6209527;23;20073;-93
2022/02/23 02:06:56;;;;;;;14.32;3.03;;;;;;;6.13;90.80;101058.69;6212879;23;20539;-91
2022/02/23 02:09:31;;;;;;;19.00;3.63;;;;;;;5.90;91.27;101032.78;6212338;23;20357;-92
2022/02/23 02:12:02;;;;;;;12.50;3.08;;;;;;;5.76;91.66;101014.59;6210966;23;20020;-92
2022/02/23 02:14:32;;;;;;;11.05;2.70;;;;;;;5.84;91.18;101028.47;6187193;23;20013;-92
2022/02/23 02:17:00;;;;;;;12.73;2.92;;;;;;;5.91;90.68;101051.16;6211719;23;20302;-91
2022/02/23 02:19:30;;;;;;;11.30;2.88;;;;;;;5.88;91.13;101051.22;6211495;23;20012;-93
2022/02/23 02:22:09;;;;;;;20.00;3.30;;;;;;;5.81;91.35;101036.41;6209268;23;20040;-92
2022/02/23 02:24:41;;;;;;;16.10;3.30;;;;;;;6.01;90.67;101048.34;6212381;23;20071;-92
2022/02/23 02:27:16;;;;;;;13.32;2.80;;;;;;;6.30;89.77;101082.88;6305013;22;20122;-93
2022/02/23 02:29:50;;;;;;;14.68;3.03;;;;;;;6.02;89.56;101034.31;6310029;22;20028;-93
2022/02/23 02:32:26;;;;;;;9.65;3.00;;;;;;;6.15;89.43;101065.63;6308786;22;20021;-92
2022/02/23 02:34:57;;;;;;;16.27;3.75;;;;;;;6.10;89.53;101070.09;6309477;22;20019;-92
2022/02/23 02:37:30;;;;;;;15.43;2.83;;;;;;;6.19;89.53;101084.84;6311538;22;20080;-92
2022/02/23 02:39:58;;;;;;;13.35;2.47;;;;;;;5.97;90.09;101061.56;6278187;22;20065;-92
2022/02/23 02:42:29;;;;;;;16.40;2.70;;;;;;;5.91;90.22;101066.94;6278451;22;20015;-93
2022/02/23 02:44:58;;;;;;;12.05;2.92;;;;;;;5.80;90.88;101066.22;6283110;22;20016;-92
2022/02/23 02:47:30;;;;;;;16.88;3.30;;;;;;;5.62;91.31;101049.00;6279856;22;20016;-94
2022/02/23 02:50:08;;;;;;;18.73;3.30;;;;;;;5.62;91.76;101061.25;6277303;22;20402;-93
2022/02/23 02:52:38;;;;;;;11.50;2.22;;;;;;;5.81;91.75;101104.75;6277000;22;20495;-93
2022/02/23 02:55:08;;;;;;;16.75;3.03;;;;;;;5.75;91.99;101086.44;6296538;22;20092;-93
2022/02/23 02:57:52;;;;;;;;;;;;;;;;;;;;;
2022/02/23 03:00:20;;;;;;;11.63;2.13;;;;;;;5.71;92.04;101095.25;6307500;22;20019;-92
2022/02/23 03:02:48;;;;;;;14.60;2.92;;;;;;;5.65;92.12;101105.88;6305863;22;20011;-92
2022/02/23 03:05:19;;;;;;;10.68;2.60;;;;;;;5.74;92.60;101133.75;6307337;22;20026;-93
2022/02/23 03:07:48;;;;;;;13.95;2.53;;;;;;;5.58;92.91;101107.72;6306354;22;20015;-92
2022/02/23 03:10:18;;;;;;;13.10;2.85;;;;;;;5.58;93.12;101126.13;6279017;22;20072;-93
2022/02/23 03:12:44;;;;;;;9.65;2.50;;;;;;;5.64;93.31;101140.94;6303369;22;20017;-94
2022/02/23 03:15:14;;;;;;;16.35;3.22;;;;;;;5.57;93.85;101141.91;6281967;22;20030;-92
2022/02/23 03:17:55;;;;;;;12.13;3.05;;;;;;;5.58;94.10;101162.91;6307642;22;20084;-92
2022/02/23 03:20:24;;;;;;;14.60;2.80;;;;;;;5.50;94.41;101150.78;6308573;22;20022;-92
2022/02/23 03:22:54;;;;;;;19.42;3.42;;;;;;;5.37;95.14;101130.78;6305993;22;20080;-94
2022/02/23 03:25:23;;;;;;;13.23;2.40;;;;;;;5.25;95.15;101127.47;6307668;22;20071;-93
2022/02/23 03:27:53;;;;;;;14.43;2.85;;;;;;;5.12;95.06;101107.50;6307803;22;20019;-92
2022/02/23 03:30:24;;;;;;;14.40;2.78;;;;;;;5.08;95.71;101102.31;6307521;22;20015;-93
2022/02/23 03:32:51;;;;;;;16.27;2.85;;;;;;;5.06;95.64;101104.09;6279960;22;20026;-93
2022/02/23 03:35:22;;;;;;;15.23;2.50;;;;;;;5.13;95.86;101140.75;6309860;22;20015;-93
2022/02/23 03:37:51;;;;;;;15.48;2.85;;;;;;;5.18;96.46;101149.44;6307415;22;20017;-91
2022/02/23 03:40:25;;;;;;;15.90;2.83;;;;;;;5.16;95.99;101139.84;6305912;22;20498;-92
2022/02/23 03:42:59;;;;;;;20.15;2.85;;;;;;;5.04;95.94;101119.84;6276874;22;20019;-92
2022/02/23 03:45:34;;;;;;;12.65;2.58;;;;;;;4.99;95.76;101116.44;6305354;22;20046;-93
2022/02/23 03:48:10;;;;;;;19.67;3.45;;;;;;;4.93;95.91;101116.50;6306107;22;20020;-91
2022/02/23 03:50:37;;;;;;;19.35;3.08;;;;;;;5.08;96.12;101158.31;6307823;22;20439;-91
2022/02/23 03:53:10;;;;;;;18.67;3.55;;;;;;;5.10;96.72;101167.03;6304403;22;20021;-92
2022/02/23 03:55:41;;;;;;;14.35;3.25;;;;;;;4.95;96.55;101138.34;6306744;22;20050;-91
2022/02/23 03:58:21;;;;;;;24.02;3.28;;;;;;;5.32;96.01;101206.19;6307088;22;20463;-91
2022/02/23 04:00:51;;;;;;;17.67;2.90;;;;;;;5.12;95.64;101178.41;6309135;22;20446;-91
2022/02/23 04:03:19;;;;;;;11.52;2.72;;;;;;;5.38;96.08;101213.94;6309105;22;20023;-93
2022/02/23 04:05:46;;;;;;;14.48;3.17;;;;;;;5.16;95.93;101179.25;6312447;22;20023;-92
2022/02/23 04:08:16;;;;;;;12.65;2.92;;;;;;;5.36;96.11;101216.59;6324969;22;20042;-93
2022/02/23 04:10:46;;;;;;;15.35;3.47;;;;;;;5.03;95.66;101183.78;6311880;22;20012;-95
2022/02/23 04:13:14;;;;;;;17.27;3.40;;;;;;;4.98;96.27;101169.81;6314496;22;20022;-92
2022/02/23 04:15:44;;;;;;;17.08;3.47;;;;;;;5.23;95.82;101213.25;6326124;22;20015;-94
2022/02/23 04:18:22;;;;;;;18.08;3.70;;;;;;;5.04;95.47;101187.22;6318669;22;20015;-90
2022/02/23 04:20:50;;;;;;;10.23;2.33;;;;;;;5.20;95.48;101220.28;6306726;22;20492;-91
2022/02/23 04:23:19;;;;;;;15.65;2.88;;;;;;;5.29;95.09;101249.97;6304890;22;20718;-92
2022/02/23 04:25:49;;;;;;;17.10;3.60;;;;;;;4.93;95.23;101198.72;6313973;22;20042;-93
2022/02/23 04:28:16;;;;;;;10.13;2.42;;;;;;;5.15;95.56;101253.63;6309972;22;20039;-95
2022/02/23 04:30:44;;;;;;;13.50;3.35;;;;;;;5.27;95.33;101272.75;6293645;22;20058;-93
2022/02/23 04:33:19;;;;;;;12.90;3.22;;;;;;;4.94;95.31;101223.22;6313137;22;20031;-92
2022/02/23 04:35:50;;;;;;;16.63;3.10;;;;;;;5.25;95.62;101289.41;6307334;22;20378;-93
2022/02/23 04:38:19;;;;;;;18.80;3.33;;;;;;;5.00;95.28;101254.66;6306865;22;20086;-92
2022/02/23 04:40:53;;;;;;;16.33;3.47;;;;;;;5.06;95.32;101283.47;6280438;22;20450;-91
2022/02/23 04:43:33;;;;;;;14.75;3.25;;;;;;;4.89;95.51;101256.50;6303022;22;20427;-93
2022/02/23 04:46:03;;;;;;;15.65;3.92;;;;;;;4.97;95.15;101274.81;6280057;22;20072;-92
2022/02/23 04:48:36;;;;;;;10.48;3.55;;;;;;;4.96;94.94;101292.31;6306992;22;20015;-91
2022/02/23 04:51:11;;;;;;;18.13;3.30;;;;;;;5.00;95.88;101296.66;6308463;22;20428;-91
2022/02/23 04:53:41;;;;;;;16.83;3.25;;;;;;;4.86;95.43;101288.94;6305854;22;20023;-91
2022/02/23 04:56:14;;;;;;;12.07;3.13;;;;;;;4.80;95.59;101267.97;6283276;22;20088;-94
2022/02/23 04:58:41;;;;;;;14.27;2.90;;;;;;;4.81;95.44;101282.84;6307584;22;20011;-92
2022/02/23 05:01:10;;;;;;;18.33;3.38;;;;;;;5.11;94.79;101331.56;6308379;22;20078;-92
2022/02/23 05:03:49;;;;;;;14.80;3.10;;;;;;;4.83;95.29;101283.72;6312425;22;20311;-92
2022/02/23 05:06:15;;;;;;;13.55;3.65;;;;;;;4.88;95.04;101297.63;6300367;22;20015;-93
2022/02/23 05:08:42;;;;;;;17.80;3.13;;;;;;;5.14;94.92;101338.53;6324871;22;20025;-93
2022/02/23 05:11:12;;;;;;;19.25;3.88;;;;;;;4.88;93.90;101271.38;6283676;22;20096;-92
2022/02/23 05:13:45;;;;;;;14.35;3.58;;;;;;;4.98;93.13;101274.81;6307926;22;20019;-90
2022/02/23 05:16:14;;;;;;;16.25;3.03;;;;;;;5.33;91.82;101313.84;6278105;22;20011;-91
2022/02/23 05:18:45;;;;;;;14.95;3.15;;;;;;;5.23;90.65;101301.66;6305422;22;20343;-90
2022/02/23 05:21:15;;;;;;;18.35;2.90;;;;;;;5.49;89.38;101319.78;6309150;22;20099;-93
2022/02/23 05:23:54;;;;;;;13.15;2.85;;;;;;;5.45;88.95;101323.31;6305060;22;20015;-93
2022/02/23 05:26:27;;;;;;;14.68;3.08;;;;;;;5.39;88.84;101300.63;6309583;22;20022;-92
2022/02/23 05:28:56;;;;;;;17.35;2.97;;;;;;;5.49;87.75;101309.28;6307257;22;20129;-93
2022/02/23 05:31:23;;;;;;;13.88;2.92;;;;;;;5.45;87.95;101312.81;6308933;22;20019;-93
2022/02/23 05:34:00;;;;;;;13.90;2.85;;;;;;;5.75;87.67;101375.53;6303780;22;20047;-93
2022/02/23 05:36:32;;;;;;;13.82;3.10;;;;;;;5.62;87.08;101353.78;6308032;22;20022;-93
2022/02/23 05:39:10;;;;;;;14.85;3.03;;;;;;;5.42;87.14;101323.34;6308736;22;20019;-94
2022/02/23 05:41:41;;;;;;;15.25;2.63;;;;;;;5.35;87.33;101321.69;6310267;22;20706;-92
2022/02/23 05:44:12;;;;;;;16.35;3.13;;;;;;;5.58;87.34;101377.47;6304308;22;20015;-93
2022/02/23 05:46:42;;;;;;;17.75;3.05;;;;;;;5.43;87.94;101348.75;6309356;22;20041;-94
2022/02/23 05:49:10;;;;;;;17.08;2.95;;;;;;;5.33;87.14;101329.59;6316090;22;20049;-93
2022/02/23 05:51:39;;;;;;;14.68;3.00;;;;;;;5.25;87.81;101328.78;6308599;22;20018;-92
2022/02/23 05:54:07;;;;;;;13.30;2.53;;;;;;;5.46;87.59;101364.47;6307091;22;20020;-90
2022/02/23 05:56:37;;;;;;;13.40;2.45;;;;;;;5.42;87.72;101383.78;6310139;22;20045;-93
2022/02/23 05:59:07;;;;;;;15.23;3.35;;;;;;;5.11;88.38;101349.94;6316515;22;20038;-89
2022/02/23 06:01:46;;;;;;;17.92;3.00;;;;;;;5.19;88.90;101387.50;6315522;22;20019;-91
2022/02/23 06:04:17;;;;;;;11.25;2.22;;;;;;;4.98;89.38;101357.94;6307916;22;20434;-91
2022/02/23 06:06:50;;;;;;;15.95;3.90;;;;;;;4.94;89.85;101371.06;6308546;22;20019;-93
2022/02/23 06:09:24;;;;;;;18.55;3.25;;;;;;;5.14;90.13;101412.06;6308209;22;20106;-92
2022/02/23 06:11:55;;;;;;;20.00;3.53;;;;;;;5.06;90.27;101414.72;6307776;22;20062;-91
2022/02/23 06:14:22;;;;;;;16.10;3.63;;;;;;;4.78;90.85;101369.47;6305544;22;20019;-94
2022/02/23 06:16:49;;;;;;;17.98;3.50;;;;;;;4.76;91.12;101380.84;6306141;22;20019;-95
2022/02/23 06:19:23;;;;;;;14.02;3.22;;;;;;;5.02;91.17;101433.16;6306648;22;20015;-92
2022/02/23 06:21:53;;;;;;;17.83;3.20;;;;;;;4.72;91.60;101387.88;6306345;22;20019;-90
2022/02/23 06:24:21;;;;;;;16.15;2.88;;;;;;;4.83;91.97;101403.56;6305071;22;20042;-90
2022/02/23 06:26:49;;;;;;;18.65;3.47;;;;;;;4.68;91.92;101395.78;6306408;22;20338;-91
2022/02/23 06:29:22;;;;;;;15.77;3.30;;;;;;;4.64;92.21;101405.44;6305693;22;20335;-92
2022/02/23 06:32:04;;;;;;;12.18;2.95;;;;;;;4.84;91.83;101424.53;6305843;22;20038;-93
2022/02/23 06:34:36;;;;;;;20.65;3.58;;;;;;;4.81;92.04;101428.94;6303480;22;20021;-92
2022/02/23 06:37:07;;;;;;;15.60;3.75;;;;;;;4.79;92.50;101426.31;6306506;22;20020;-91
2022/02/23 06:39:44;;;;;;;13.32;3.38;;;;;;;4.69;92.55;101394.91;6280820;22;20019;-94
2022/02/23 06:42:26;;;;;;;;;;;;;;;;;;;;;
2022/02/23 06:45:06;;;;;;;22.00;3.63;;;;;;;4.86;92.22;101433.28;6305164;22;20023;-92
2022/02/23 06:47:37;;;;;;;16.20;3.60;;;;;;;4.76;92.87;101418.44;6307009;22;20022;-93
2022/02/23 06:50:17;;;;;;;12.88;2.78;;;;;;;4.92;92.32;101448.97;6304778;22;20016;-93
2022/02/23 06:52:47;;;;;;;17.40;3.75;;;;;;;4.85;92.41;101433.28;6306856;22;20034;-94
2022/02/23 06:55:40;;;;;;;14.18;3.63;;;;;;;5.12;92.24;101477.69;6304755;22;20050;-92
2022/02/23 07:01:19;;;;;;;18.17;3.85;;;;;;;5.08;91.37;101454.09;6278755;22;20034;-96
2022/02/23 07:04:07;;;;;;;;;;;;;;;;;;;;;
2022/02/23 07:07:23;;;;;;;16.00;3.10;;;;;;;5.11;90.76;101472.47;6284021;22;20020;-96
2022/02/23 07:10:23;;;;;;;13.25;3.28;;;;;;;5.02;90.40;101451.53;6283363;22;20434;-96
2022/02/23 07:13:21;;;;;;;15.63;3.65;;;;;;;5.09;90.47;101459.34;6307973;22;20725;-93
2022/02/23 07:16:15;;;;;;;17.33;3.72;;;;;;;5.12;90.33;101461.06;6306923;22;20023;-93
2022/02/23 07:19:03;;;;;;;12.53;3.33;;;;;;;5.12;90.11;101467.19;6276800;22;20071;-91
2022/02/23 07:21:31;;;;;;;20.35;3.83;;;;;;;4.99;90.12;101439.31;6279310;22;20952;-92
2022/02/23 07:23:59;;;;;;;16.25;4.07;;;;;;;5.20;89.98;101475.88;6303426;22;20027;-91
2022/02/23 07:26:26;;;;;;;18.48;4.05;;;;;;;5.24;90.27;101485.47;6306340;22;20023;-93
2022/02/23 07:28:55;;;;;;;13.27;4.47;;;;;;;5.21;89.88;101477.63;6304363;22;20026;-91
2022/02/23 07:31:40;;;;;;;16.77;3.47;;;;;;;5.16;89.54;101462.81;6303782;22;20019;-91
2022/02/23 07:34:07;;;;;;;18.05;3.88;;;;;;;5.28;88.98;101473.19;6295178;22;20015;-93
2022/02/23 07:36:40;;;;;;;20.42;4.10;;;;;;;5.39;88.98;101491.47;6303414;22;20019;-93
2022/02/23 07:39:08;;;;;;;15.85;3.90;;;;;;;5.42;88.55;101486.22;6303164;22;20090;-91
2022/02/23 07:41:35;;;;;;;19.80;4.03;;;;;;;5.53;88.37;101506.25;6305052;22;20015;-92
2022/02/23 07:44:30;;;;;;;15.55;4.13;;;;;;;5.76;87.92;101544.59;6282427;22;20095;-92
2022/02/23 07:47:02;;;;;;;16.00;4.13;;;;;;;5.46;88.20;101486.19;6267506;22;20451;-89
2022/02/23 07:49:31;;;;;;;13.70;4.22;;;;;;;5.71;88.12;101518.34;6265107;22;20332;-90
2022/02/23 07:52:07;;;;;;;17.57;4.53;;;;;;;5.64;87.83;101495.66;6278716;22;20152;-92
2022/02/23 07:54:58;;;;;;;16.60;3.97;;;;;;;5.96;87.24;101538.31;6273340;22;20046;-90
2022/02/23 07:57:25;;;;;;;16.80;3.80;;;;;;;5.91;86.31;101528.72;6248127;22;20390;-91
2022/02/23 08:00:00;;;;;;;12.85;3.80;;;;;;;5.91;85.71;101526.09;6278653;22;20019;-92
2022/02/23 08:02:31;;;;;;;19.50;4.65;;;;;;;6.08;85.41;101536.44;6271588;22;20023;-92
2022/02/23 08:04:58;;;;;;;16.40;3.78;;;;;;;6.22;84.98;101556.44;6274188;22;20043;-91
2022/02/23 08:07:35;;;;;;;21.50;4.75;;;;;;;6.19;85.06;101534.56;6276432;22;20073;-92
2022/02/23 08:10:05;;;;;;;15.07;3.80;;;;;;;6.38;85.07;101549.25;6274938;22;20028;-90
2022/02/23 08:12:35;;;;;;;15.35;4.38;;;;;;;6.35;83.82;101520.34;6270173;22;20431;-91
2022/02/23 08:20:47;;;;;;;15.88;3.75;;;;;;;6.48;82.58;101527.19;6275077;22;20016;-90
2022/02/23 08:23:17;;;;;;;10.20;2.97;;;;;;;6.40;83.39;101496.63;6276451;22;20041;-93
2022/02/23 08:25:45;;;;;;;16.80;4.30;;;;;;;6.56;82.73;101520.09;6277486;22;20020;-90
2022/02/23 08:28:19;;;;;;;12.85;4.13;;;;;;;6.52;82.43;101507.84;6275607;22;20026;-91
2022/02/23 08:30:53;;;;;;;15.55;4.07;;;;;;;6.71;81.46;101539.22;6276995;22;20026;-92
2022/02/23 08:33:23;;;;;;;17.58;4.75;;;;;;;6.62;81.89;101514.72;6277142;22;20810;-91
2022/02/23 08:35:52;;;;;;;18.92;4.10;;;;;;;6.85;82.13;101542.53;6276157;22;20020;-91
2022/02/23 08:38:30;;;;;;;19.67;4.55;;;;;;;6.92;81.60;101523.13;6278776;22;20011;-91
2022/02/23 08:40:59;;;;;;;19.40;4.75;;;;;;;7.23;79.67;101527.06;6277425;22;20436;-90
2022/02/23 08:43:27;;;;;;;14.90;3.92;;;;;;;7.54;78.60;101518.66;6275860;22;20015;-91
2022/02/23 08:45:59;;;;;;;18.08;4.75;;;;;;;7.97;77.02;101530.19;6275747;22;20534;-90
2022/02/23 08:48:35;;;;;;;12.50;4.07;;;;;;;8.45;74.25;101535.47;6276922;22;20028;-92
2022/02/23 08:51:18;;;;;;;16.35;4.07;;;;;;;8.90;72.12;101553.91;6280497;22;20062;-91
2022/02/23 08:54:03;;;;;;;13.75;3.38;;;;;;;9.33;70.85;101557.31;6280942;22;20023;-94
2022/02/23 08:56:38;;;;;;;13.15;3.15;;;;;;;9.59;67.78;101543.47;6255146;22;20077;-91
2022/02/23 08:59:07;;;;;;;17.92;4.15;;;;;;;9.97;65.71;101529.25;6279244;22;20135;-91
2022/02/23 09:01:37;;;;;;;16.27;3.42;;;;;;;10.29;64.01;101535.50;6279130;22;20505;-90
2022/02/23 09:04:14;;;;;;;15.45;3.13;;;;;;;10.54;63.79;101541.88;6276996;22;20568;-91
2022/02/23 09:06:41;;;;;;;17.08;3.15;;;;;;;10.61;62.65;101518.69;6279005;22;20015;-91
2022/02/23 09:09:11;;;;;;;15.18;3.08;;;;;;;11.00;59.47;101524.59;6280037;22;20092;-91
2022/02/23 09:11:41;;;;;;;10.50;2.70;;;;;;;10.96;60.75;101552.97;6281539;22;20070;-90
2022/02/23 09:14:12;;;;;;;12.05;3.17;;;;;;;11.11;60.23;101548.97;6280671;22;20050;-92
2022/02/23 09:16:44;;;;;;;9.57;2.92;;;;;;;11.37;58.61;101567.59;6279438;22;20026;-91
2022/02/23 09:19:11;;;;;;;16.98;3.47;;;;;;;11.38;58.34;101540.16;6280905;22;20140;-91
2022/02/23 09:21:39;;;;;;;13.60;3.65;;;;;;;11.62;56.57;101583.59;6280791;22;20046;-91
2022/02/23 09:24:08;;;;;;;12.27;3.17;;;;;;;11.43;57.37;101556.78;6279752;22;20527;-92
2022/02/23 09:26:35;;;;;;;13.35;2.95;;;;;;;10.77;58.75;101531.44;6280181;22;20031;-92
2022/02/23 09:29:12;;;;;;;15.02;3.13;;;;;;;10.35;61.31;101557.38;6281589;22;20027;-91
2022/02/23 09:31:40;;;;;;;14.25;3.20;;;;;;;10.26;61.83;101567.34;6280874;22;20022;-92
2022/02/23 09:34:15;;;;;;;10.68;2.97;;;;;;;10.27;62.42;101558.50;6277601;22;20443;-92
2022/02/23 09:36:42;;;;;;;12.55;2.80;;;;;;;10.24;61.51;101526.81;6279726;22;20408;-92
2022/02/23 09:39:13;;;;;;;11.23;2.60;;;;;;;10.54;60.22;101550.69;6279887;22;20028;-91
2022/02/23 09:41:43;;;;;;;13.55;2.80;;;;;;;10.48;59.43;101507.59;6280165;22;20019;-92
2022/02/23 09:44:19;;;;;;;15.60;3.13;;;;;;;10.79;59.36;101552.59;6279246;22;20057;-92
2022/02/23 09:46:48;;;;;;;19.23;3.10;;;;;;;10.72;58.37;101517.47;6280090;22;20370;-93
2022/02/23 09:49:17;;;;;;;11.65;2.78;;;;;;;10.92;57.25;101537.19;6256845;22;20023;-92
2022/02/23 09:51:46;;;;;;;9.63;2.60;;;;;;;11.41;56.24;101555.09;6284553;22;20012;-91
2022/02/23 09:54:18;;;;;;;15.38;2.75;;;;;;;11.55;53.96;101511.28;6286194;22;20027;-94
2022/02/23 09:56:48;;;;;;;12.90;2.42;;;;;;;11.91;53.79;101553.47;6285709;22;20042;-91
2022/02/23 09:59:22;;;;;;;13.25;2.70;;;;;;;12.08;53.09;101519.25;6287449;22;20046;-93
2022/02/23 10:02:05;;;;;;;14.10;2.40;;;;;;;12.58;51.81;101540.47;6292387;22;20027;-93
2022/02/23 10:04:43;;;;;;;12.27;2.38;;;;;;;12.76;50.57;101528.25;6291727;22;20015;-91
2022/02/23 10:07:40;;;;;;;16.63;3.53;;;;;;;12.76;49.12;101522.94;6283269;22;20027;-93
2022/02/23 10:10:59;;;;;;;12.48;2.63;;;;;;;13.73;48.28;101571.41;6293044;22;20020;-92
2022/02/23 10:13:56;;;;;;;13.55;2.33;;;;;;;13.98;46.80;101510.88;6290771;22;20026;-92
2022/02/23 10:17:10;;;;;;;;;;;;;;;;;;;;;
2022/02/23 10:36:45;;;;;;;9.23;2.60;;;;;;;16.17;41.29;101556.47;6314518;22;20423;-91
2022/02/23 10:39:36;;;;;;;9.40;2.17;;;;;;;16.75;38.87;101564.13;6318261;22;20071;-92
2022/02/23 10:42:19;;;;;;;11.68;2.75;;;;;;;16.54;38.67;101506.38;6314542;22;20045;-92
2022/02/23 10:44:51;;;;;;;11.93;3.00;;;;;;;15.46;41.37;101555.56;6316629;22;20015;-92
2022/02/23 10:47:44;;;;;;;11.45;2.47;;;;;;;15.40;41.21;101503.38;6313385;22;20023;-92
2022/02/23 10:50:29;;;;;;;9.80;2.70;;;;;;;15.59;40.79;101494.47;6283486;22;20070;-93
2022/02/23 10:53:38;;;;;;;9.52;2.10;;;;;;;15.15;41.83;101500.16;6311719;22;20064;-95
2022/02/23 10:56:30;;;;;;;13.63;3.08;;;;;;;15.47;40.03;101492.38;6310527;22;20050;-93
2022/02/23 11:02:19;;;;;;;8.90;2.25;;;;;;;14.86;40.10;101562.03;6315380;22;20019;-92
2022/02/23 11:05:01;;;;;;;11.38;2.47;;;;;;;14.27;41.49;101555.75;6308186;22;20050;-92
2022/02/23 11:07:34;;;;;;;10.45;2.63;;;;;;;13.11;43.79;101525.09;6306305;22;20029;-92
2022/02/23 11:10:14;;;;;;;;;;;;;;;;;;;;;
2022/02/23 11:12:49;;;;;;;11.55;3.55;;;;;;;11.83;47.59;101513.91;6305273;22;20435;-91
2022/02/23 11:15:31;;;;;;;11.20;2.53;;;;;;;11.69;48.41;101552.41;6307766;22;20022;-92
2022/02/23 11:18:23;;;;;;;9.60;2.28;;;;;;;11.18;49.50;101524.88;6308888;22;20026;-92
2022/02/23 11:21:00;;;;;;;13.07;2.60;;;;;;;10.77;51.14;101499.66;6307708;22;20339;-93
2022/02/23 11:24:07;;;;;;;11.57;2.72;;;;;;;11.18;50.95;101502.78;6291129;22;20026;-94
2022/02/23 11:26:43;;;;;;;12.20;2.58;;;;;;;11.90;49.58;101527.84;6310867;22;20012;-96
2022/02/23 11:30:05;;;;;;;9.50;2.50;;;;;;;11.97;47.26;101502.81;6312467;22;20127;-91
2022/02/23 11:33:24;;;;;;;10.20;2.92;;;;;;;11.75;48.26;101486.75;6142416;23;20445;-95
2022/02/23 11:41:46;;;;;;;11.48;2.38;;;;;;;11.72;49.58;101507.22;6305345;22;20114;-94
2022/02/23 11:44:30;;;;;;;15.98;2.75;;;;;;;11.51;49.51;101464.56;6276206;22;20038;-96
2022/02/23 11:47:21;;;;;;;11.20;2.20;;;;;;;11.80;48.41;101503.44;6238628;23;20087;-91
2022/02/23 11:49:51;;;;;;;8.35;2.28;;;;;;;11.62;48.32;101466.00;6245339;22;20409;-91
2022/02/23 11:52:22;;;;;;;13.48;2.80;;;;;;;11.82;47.91;101495.38;6241692;22;20023;-93
2022/02/23 11:55:10;;;;;;;13.10;2.10;;;;;;;11.84;47.58;101512.13;6241407;22;20026;-91
2022/02/23 11:57:54;;;;;;;8.82;2.20;;;;;;;11.76;48.33;101507.09;6250117;22;20498;-91
2022/02/23 12:00:27;;;;;;;8.95;2.08;;;;;;;11.84;48.17;101515.66;6250397;22;20024;-94
2022/02/23 12:03:01;;;;;;;10.57;2.17;;;;;;;11.56;47.12;101473.25;6248883;22;20036;-92
2022/02/23 12:05:52;;;;;;;12.35;2.83;;;;;;;11.74;47.57;101510.69;6244023;22;20102;-94
2022/02/23 12:08:31;;;;;;;6.68;1.60;;;;;;;11.68;46.42;101487.00;6247265;22;20024;-93
2022/02/23 12:11:13;;;;;;;11.85;2.28;;;;;;;11.71;46.95;101492.22;6249117;22;20016;-92
2022/02/23 12:13:51;;;;;;;9.93;2.05;;;;;;;11.63;47.80;101473.03;6250346;22;20043;-93
2022/02/23 12:16:55;;;;;;;;;;;;;;;;;;;;;
2022/02/23 12:19:41;;;;;;;14.23;2.47;;;;;;;11.78;47.01;101472.53;6288027;22;20023;-95
2022/02/23 12:22:11;;;;;;;12.52;2.30;;;;;;;11.76;46.76;101471.72;6279653;22;20019;-90
2022/02/23 12:24:44;;;;;;;7.40;1.80;;;;;;;11.67;46.63;101445.47;6253547;22;20019;-92
2022/02/23 12:27:21;;;;;;;11.00;2.15;;;;;;;11.68;45.16;101425.97;6260397;22;20404;-90
2022/02/23 12:29:55;;;;;;;12.07;2.42;;;;;;;11.65;46.15;101418.97;6285321;22;20020;-90
2022/02/23 12:32:31;;;;;;;10.57;1.77;;;;;;;11.94;46.44;101453.38;6254336;22;20012;-92
2022/02/23 12:35:08;;;;;;;14.18;2.38;;;;;;;12.31;46.17;101457.31;6279454;22;20024;-92
2022/02/23 12:37:39;;;;;;;10.30;1.85;;;;;;;12.59;43.75;101447.38;6279467;22;20034;-93
2022/02/23 12:40:11;;;;;;;15.13;2.40;;;;;;;12.80;44.18;101435.06;6254299;22;20019;-92
2022/02/23 12:42:38;;;;;;;5.30;1.50;;;;;;;13.31;41.50;101447.19;6279663;22;20016;-93
2022/02/23 12:45:09;;;;;;;12.27;1.80;;;;;;;13.95;40.03;101466.59;6283456;22;20020;-93
2022/02/23 12:48:01;;;;;;;5.80;1.48;;;;;;;14.97;36.75;101439.69;6282457;22;20015;-93
2022/02/23 12:50:33;;;;;;;7.90;1.70;;;;;;;16.16;34.64;101428.28;6279958;22;20069;-94
2022/02/23 12:53:04;;;;;;;5.97;1.38;;;;;;;17.09;32.65;101413.25;6279199;22;20016;-92